createdAt,value
2022-09-12T00:02:11.277Z,100.00
2022-09-12T00:04:45.535Z,100.00
2022-09-12T00:07:18.653Z,100.00
2022-09-12T00:09:52.299Z,100.00
2022-09-12T00:12:25.177Z,100.00
2022-09-12T00:14:58.100Z,100.00
2022-09-12T00:17:31.626Z,100.00
2022-09-12T00:20:08.338Z,100.00
2022-09-12T00:22:42.340Z,100.00
2022-09-12T00:25:15.674Z,100.00
2022-09-12T00:27:50.150Z,100.00
2022-09-12T00:30:23.212Z,100.00
2022-09-12T00:32:58.617Z,100.00
2022-09-12T00:35:31.646Z,100.00
2022-09-12T00:38:05.185Z,100.00
2022-09-12T00:40:40.436Z,100.00
2022-09-12T00:43:33.561Z,100.00
2022-09-12T00:46:26.334Z,100.00
2022-09-12T00:49:06.287Z,100.00
2022-09-12T00:51:40.829Z,100.00
2022-09-12T00:54:17.613Z,100.00
2022-09-12T00:56:51.119Z,100.00
2022-09-12T00:59:29.707Z,100.00
2022-09-12T01:02:03.035Z,100.00
2022-09-12T01:04:36.424Z,100.00
2022-09-12T01:07:10.273Z,100.00
2022-09-12T01:09:45.334Z,100.00
2022-09-12T01:12:18.080Z,100.00
2022-09-12T01:14:51.806Z,100.00
2022-09-12T01:17:24.753Z,100.00
2022-09-12T01:20:35.174Z,100.00
2022-09-12T01:23:33.842Z,100.00
2022-09-12T01:26:38.729Z,100.00
2022-09-12T01:29:25.694Z,100.00
2022-09-12T01:32:28.206Z,100.00
2022-09-12T01:35:41.796Z,100.00
2022-09-12T01:38:52.269Z,100.00
2022-09-12T01:41:54.941Z,100.00
2022-09-12T01:44:39.211Z,100.00
2022-09-12T01:47:24.518Z,100.00
2022-09-12T01:50:12.301Z,100.00
2022-09-12T01:53:04.970Z,100.00
2022-09-12T01:55:54.208Z,100.00
2022-09-12T01:58:31.418Z,100.00
2022-09-12T02:01:15.963Z,100.00
2022-09-12T02:04:11.289Z,100.00
2022-09-12T02:06:54.144Z,100.00
2022-09-12T02:09:56.120Z,100.00
2022-09-12T02:12:33.643Z,100.00
2022-09-12T02:15:09.041Z,100.00
2022-09-12T02:17:45.304Z,100.00
2022-09-12T02:20:47.069Z,100.00
2022-09-12T02:22:59.999Z,100.00
2022-09-12T02:25:33.754Z,100.00
2022-09-12T02:28:14.338Z,100.00
2022-09-12T02:31:02.125Z,100.00
2022-09-12T02:33:52.349Z,100.00
2022-09-12T02:36:50.499Z,100.00
2022-09-12T02:39:24.487Z,100.00
2022-09-12T02:41:59.232Z,100.00
2022-09-12T02:44:32.843Z,100.00
2022-09-12T02:47:17.527Z,100.00
2022-09-12T02:49:51.168Z,100.00
2022-09-12T02:52:24.853Z,100.00
2022-09-12T02:54:58.513Z,100.00
2022-09-12T02:57:32.838Z,100.00
2022-09-12T03:00:07.207Z,100.00
2022-09-12T03:02:53.814Z,100.00
2022-09-12T03:05:37.423Z,100.00
2022-09-12T03:08:42.458Z,100.00
2022-09-12T03:11:32.932Z,100.00
2022-09-12T03:14:20.069Z,100.00
2022-09-12T03:17:12.901Z,100.00
2022-09-12T03:20:14.876Z,100.00
2022-09-12T03:23:03.837Z,100.00
2022-09-12T03:25:44.953Z,100.00
2022-09-12T03:28:18.597Z,100.00
2022-09-12T03:30:53.728Z,100.00
2022-09-12T03:33:48.288Z,100.00
2022-09-12T03:36:25.097Z,100.00
2022-09-12T03:38:58.300Z,100.00
2022-09-12T03:41:31.166Z,100.00
2022-09-12T03:44:05.943Z,100.00
2022-09-12T03:46:37.989Z,100.00
2022-09-12T03:49:11.254Z,100.00
2022-09-12T03:51:45.958Z,100.00
2022-09-12T03:54:18.902Z,100.00
2022-09-12T03:56:51.783Z,100.00
2022-09-12T03:59:24.914Z,100.00
2022-09-12T04:01:59.314Z,100.00
2022-09-12T04:04:32.328Z,100.00
2022-09-12T04:07:05.290Z,100.00
2022-09-12T04:09:38.287Z,100.00
2022-09-12T04:12:11.212Z,100.00
2022-09-12T04:14:44.891Z,100.00
2022-09-12T04:17:17.700Z,100.00
2022-09-12T04:19:51.148Z,100.00
2022-09-12T04:22:24.461Z,100.00
2022-09-12T04:24:57.837Z,100.00
2022-09-12T04:27:31.237Z,100.00
2022-09-12T04:30:04.416Z,100.00
2022-09-12T04:32:38.199Z,100.00
2022-09-12T04:35:12.686Z,100.00
2022-09-12T04:37:46.611Z,100.00
2022-09-12T04:40:20.041Z,100.00
2022-09-12T04:42:53.171Z,100.00
2022-09-12T04:45:26.800Z,100.00
2022-09-12T04:48:00.218Z,100.00
2022-09-12T04:50:35.027Z,100.00
2022-09-12T04:53:08.014Z,100.00
2022-09-12T04:55:41.355Z,100.00
2022-09-12T04:58:14.363Z,100.00
2022-09-12T05:00:48.395Z,100.00
2022-09-12T05:03:21.076Z,100.00
2022-09-12T05:05:56.426Z,100.00
2022-09-12T05:08:29.219Z,100.00
2022-09-12T05:11:11.740Z,100.00
2022-09-12T05:13:45.236Z,100.00
2022-09-12T05:16:21.905Z,100.00
2022-09-12T05:18:54.939Z,100.00
2022-09-12T05:21:28.438Z,100.00
2022-09-12T05:24:02.856Z,100.00
2022-09-12T05:26:57.541Z,100.00
2022-09-12T05:29:34.845Z,100.00
2022-09-12T05:32:09.807Z,100.00
2022-09-12T05:34:42.221Z,100.00
2022-09-12T05:37:16.316Z,100.00
2022-09-12T05:39:50.447Z,100.00
2022-09-12T05:42:23.785Z,100.00
2022-09-12T05:44:58.901Z,100.00
2022-09-12T05:47:32.678Z,100.00
2022-09-12T05:50:07.873Z,99.93
2022-09-12T05:52:40.937Z,99.59
2022-09-12T05:55:24.713Z,99.61
2022-09-12T05:57:57.730Z,99.75
2022-09-12T06:00:33.527Z,99.65
2022-09-12T06:03:25.617Z,99.13
2022-09-12T06:05:58.464Z,99.15
2022-09-12T06:08:33.063Z,98.62
2022-09-12T06:11:06.231Z,98.47
2022-09-12T06:13:41.588Z,97.84
2022-09-12T06:16:18.298Z,98.28
2022-09-12T06:18:53.956Z,98.17
2022-09-12T06:21:28.870Z,98.04
2022-09-12T06:24:04.224Z,97.70
2022-09-12T06:26:39.750Z,96.33
2022-09-12T06:29:13.692Z,95.89
2022-09-12T06:31:47.230Z,95.50
2022-09-12T06:34:20.290Z,95.74
2022-09-12T06:36:54.463Z,94.85
2022-09-12T06:39:28.351Z,93.96
2022-09-12T06:42:01.215Z,93.40
2022-09-12T06:44:35.157Z,93.20
2022-09-12T06:47:10.031Z,92.86
2022-09-12T06:49:42.859Z,92.52
2022-09-12T06:52:15.925Z,92.23
2022-09-12T06:54:50.071Z,90.87
2022-09-12T06:57:23.516Z,89.84
2022-09-12T06:59:56.497Z,88.61
2022-09-12T07:02:30.743Z,88.38
2022-09-12T07:05:03.659Z,87.76
2022-09-12T07:07:38.507Z,86.64
2022-09-12T07:10:12.608Z,86.42
2022-09-12T07:12:46.094Z,86.47
2022-09-12T07:15:19.364Z,86.72
2022-09-12T07:17:52.899Z,86.69
2022-09-12T07:20:26.026Z,86.64
2022-09-12T07:22:59.246Z,86.20
2022-09-12T07:25:32.441Z,85.34
2022-09-12T07:28:05.969Z,84.62
2022-09-12T07:30:39.855Z,83.87
2022-09-12T07:33:12.822Z,82.62
2022-09-12T07:35:45.928Z,82.17
2022-09-12T07:38:19.042Z,81.73
2022-09-12T07:40:52.523Z,83.10
2022-09-12T07:43:26.401Z,81.72
2022-09-12T07:45:59.616Z,77.98
2022-09-12T07:48:32.731Z,74.70
2022-09-12T07:51:07.878Z,72.05
2022-09-12T07:53:43.721Z,66.20
2022-09-12T07:56:17.803Z,67.40
2022-09-12T07:58:50.950Z,68.08
2022-09-12T08:01:25.350Z,69.39
2022-09-12T08:04:21.861Z,69.54
2022-09-12T08:06:55.002Z,69.88
2022-09-12T08:09:28.726Z,70.04
2022-09-12T08:12:03.350Z,70.91
2022-09-12T08:14:35.886Z,72.12
2022-09-12T08:17:10.014Z,71.63
2022-09-12T08:19:45.215Z,71.37
2022-09-12T08:22:20.232Z,71.35
2022-09-12T08:24:53.981Z,69.60
2022-09-12T08:27:27.096Z,67.72
2022-09-12T08:30:00.902Z,65.83
2022-09-12T08:32:35.546Z,64.71
2022-09-12T08:35:09.714Z,63.98
2022-09-12T08:37:42.845Z,64.22
2022-09-12T08:40:20.734Z,64.02
2022-09-12T08:43:18.109Z,65.78
2022-09-12T08:46:01.635Z,66.88
2022-09-12T08:48:35.301Z,67.20
2022-09-12T08:51:12.517Z,67.56
2022-09-12T08:53:47.733Z,66.89
2022-09-12T08:56:21.106Z,68.31
2022-09-12T08:58:54.916Z,66.98
2022-09-12T09:01:42.774Z,67.43
2022-09-12T09:04:51.873Z,69.42
2022-09-12T09:07:45.964Z,69.84
2022-09-12T09:10:52.044Z,70.22
2022-09-12T09:14:03.047Z,68.96
2022-09-12T09:16:42.834Z,67.69
2022-09-12T09:19:24.216Z,66.52
2022-09-12T09:22:24.823Z,66.19
2022-09-12T09:25:01.230Z,66.21
2022-09-12T09:27:41.770Z,67.46
2022-09-12T09:30:20.820Z,68.05
2022-09-12T09:32:58.570Z,67.59
2022-09-12T09:35:50.802Z,67.83
2022-09-12T09:38:50.797Z,68.35
2022-09-12T09:42:09.606Z,68.63
2022-09-12T09:44:45.274Z,68.82
2022-09-12T09:47:19.985Z,68.35
2022-09-12T09:49:54.096Z,68.44
2022-09-12T09:52:31.201Z,68.03
2022-09-12T09:55:05.515Z,67.45
2022-09-12T09:57:42.099Z,67.66
2022-09-12T10:00:31.841Z,67.48
2022-09-12T10:03:15.289Z,67.88
2022-09-12T10:05:59.429Z,67.79
2022-09-12T10:08:35.720Z,67.55
2022-09-12T10:11:22.925Z,67.75
2022-09-12T10:14:02.025Z,67.86
2022-09-12T10:19:40.634Z,68.72
2022-09-12T10:22:34.308Z,68.71
2022-09-12T10:25:09.062Z,69.03
2022-09-12T10:27:43.952Z,68.38
2022-09-12T10:30:20.946Z,69.52
2022-09-12T10:32:55.762Z,69.64
2022-09-12T10:35:34.054Z,70.98
2022-09-12T10:38:28.251Z,72.87
2022-09-12T10:41:11.276Z,75.94
2022-09-12T10:43:44.920Z,77.56
2022-09-12T10:46:23.082Z,80.04
2022-09-12T10:49:22.737Z,79.97
2022-09-12T10:51:56.744Z,81.45
2022-09-12T10:54:30.502Z,81.69
2022-09-12T10:57:35.542Z,81.55
2022-09-12T11:00:18.092Z,80.45
2022-09-12T11:03:13.897Z,80.30
2022-09-12T11:06:03.508Z,81.13
2022-09-12T11:08:56.521Z,82.06
2022-09-12T11:11:59.445Z,81.87
2022-09-12T11:15:01.837Z,81.78
2022-09-12T11:17:54.094Z,81.14
2022-09-12T11:20:58.941Z,80.60
2022-09-12T11:24:02.619Z,79.76
2022-09-12T11:26:46.360Z,79.94
2022-09-12T11:29:52.037Z,80.16
2022-09-12T11:32:56.035Z,80.31
2022-09-12T11:35:34.674Z,80.85
2022-09-12T11:38:33.614Z,80.45
2022-09-12T11:41:12.861Z,80.62
2022-09-12T11:44:04.551Z,80.81
2022-09-12T11:46:46.655Z,81.19
2022-09-12T11:49:51.205Z,81.29
2022-09-12T11:52:29.712Z,81.29
2022-09-12T11:55:15.503Z,81.02
2022-09-12T11:58:00.656Z,80.95
2022-09-12T12:00:57.240Z,81.33
2022-09-12T12:03:46.654Z,81.40
2022-09-12T12:06:35.515Z,81.82
2022-09-12T12:09:08.835Z,81.89
2022-09-12T12:11:57.310Z,81.70
2022-09-12T12:14:44.101Z,81.73
2022-09-12T12:17:22.010Z,81.63
2022-09-12T12:20:07.682Z,81.37
2022-09-12T12:22:39.701Z,81.18
2022-09-12T12:25:22.368Z,83.03
2022-09-12T12:28:02.100Z,83.10
2022-09-12T12:30:58.380Z,82.08
2022-09-12T12:33:36.772Z,81.71
2022-09-12T12:36:14.548Z,86.23
2022-09-12T12:38:48.048Z,86.90
2022-09-12T12:41:25.655Z,86.38
2022-09-12T12:43:58.960Z,86.87
2022-09-12T12:46:32.067Z,86.75
2022-09-12T12:49:24.897Z,86.57
2022-09-12T12:52:02.907Z,86.88
2022-09-12T12:54:46.235Z,86.21
2022-09-12T12:57:33.625Z,85.90
2022-09-12T13:00:16.770Z,85.22
2022-09-12T13:02:59.977Z,84.75
2022-09-12T13:05:41.855Z,84.82
2022-09-12T13:08:29.246Z,85.50
2022-09-12T13:11:12.512Z,85.74
2022-09-12T13:13:54.541Z,85.73
2022-09-12T13:16:59.013Z,86.25
2022-09-12T13:19:35.449Z,86.79
2022-09-12T13:22:11.156Z,86.85
2022-09-12T13:24:52.071Z,86.19
2022-09-12T13:27:26.920Z,86.69
2022-09-12T13:30:17.073Z,85.81
2022-09-12T13:32:50.354Z,86.09
2022-09-12T13:35:38.263Z,85.11
2022-09-12T13:38:32.154Z,85.07
2022-09-12T13:41:18.459Z,85.33
2022-09-12T13:43:51.495Z,85.03
2022-09-12T13:46:30.710Z,84.67
2022-09-12T13:49:09.424Z,84.95
2022-09-12T13:51:42.835Z,85.93
2022-09-12T13:54:23.827Z,86.63
2022-09-12T13:56:54.933Z,86.17
2022-09-12T13:59:28.877Z,86.46
2022-09-12T14:02:02.017Z,86.52
2022-09-12T14:04:52.981Z,86.84
2022-09-12T14:07:26.529Z,87.39
2022-09-12T14:10:02.032Z,87.66
2022-09-12T14:12:43.720Z,87.96
2022-09-12T14:15:24.934Z,88.47
2022-09-12T14:18:01.728Z,88.73
2022-09-12T14:20:39.647Z,89.29
2022-09-12T14:23:33.984Z,88.94
2022-09-12T14:26:08.419Z,89.00
2022-09-12T14:28:50.381Z,89.36
2022-09-12T14:31:26.929Z,89.71
2022-09-12T14:34:16.473Z,90.40
2022-09-12T14:37:11.949Z,91.58
2022-09-12T14:39:45.966Z,91.33
2022-09-12T14:42:22.423Z,92.28
2022-09-12T14:45:06.238Z,93.49
2022-09-12T14:47:42.467Z,93.26
2022-09-12T14:50:40.422Z,93.65
2022-09-12T14:53:23.755Z,94.08
2022-09-12T14:56:14.107Z,94.17
2022-09-12T14:58:48.117Z,94.29
2022-09-12T15:01:24.934Z,94.14
2022-09-12T15:03:58.349Z,93.09
2022-09-12T15:06:37.133Z,92.77
2022-09-12T15:09:14.314Z,92.97
2022-09-12T15:11:47.760Z,92.69
2022-09-12T15:14:40.159Z,92.16
2022-09-12T15:17:13.116Z,91.81
2022-09-12T15:19:46.652Z,91.72
2022-09-12T15:22:21.106Z,91.58
2022-09-12T15:24:55.316Z,91.96
2022-09-12T15:27:28.312Z,92.32
2022-09-12T15:30:01.319Z,92.68
2022-09-12T15:32:35.327Z,93.52
2022-09-12T15:35:25.775Z,93.46
2022-09-12T15:37:58.997Z,93.61
2022-09-12T15:40:32.874Z,94.21
2022-09-12T15:43:07.193Z,94.50
2022-09-12T15:45:40.799Z,95.30
2022-09-12T15:48:15.300Z,95.87
2022-09-12T15:51:12.364Z,96.04
2022-09-12T15:53:43.761Z,96.07
2022-09-12T15:56:21.413Z,96.62
2022-09-12T15:58:59.563Z,96.89
2022-09-12T16:01:30.305Z,97.26
2022-09-12T16:04:04.747Z,97.48
2022-09-12T16:06:38.082Z,97.71
2022-09-12T16:09:16.118Z,97.91
2022-09-12T16:11:47.407Z,97.92
2022-09-12T16:14:21.044Z,98.01
2022-09-12T16:16:56.626Z,98.29
2022-09-12T16:22:13.505Z,98.69
2022-09-12T16:24:46.515Z,98.74
2022-09-12T16:27:20.017Z,99.37
2022-09-12T16:29:53.128Z,99.61
2022-09-12T16:32:46.951Z,99.91
2022-09-12T16:35:21.148Z,100.00
2022-09-12T16:37:53.968Z,100.00
2022-09-12T16:40:37.721Z,100.00
2022-09-12T16:43:10.926Z,100.00
2022-09-12T16:45:44.842Z,100.00
2022-09-12T16:48:18.241Z,100.00
2022-09-12T16:50:58.861Z,100.00
2022-09-12T16:53:33.947Z,100.00
2022-09-12T16:56:07.573Z,100.00
2022-09-12T16:58:42.336Z,100.00
2022-09-12T17:01:18.726Z,100.00
2022-09-12T17:03:58.272Z,100.00
2022-09-12T17:06:31.988Z,100.00
2022-09-12T17:09:05.822Z,100.00
2022-09-12T17:11:39.801Z,100.00
2022-09-12T17:14:14.744Z,100.00
2022-09-12T17:16:51.874Z,100.00
2022-09-12T17:22:13.278Z,100.00
2022-09-12T17:25:06.165Z,100.00
2022-09-12T17:27:41.029Z,100.00
2022-09-12T17:30:15.005Z,100.00
2022-09-12T17:32:48.072Z,100.00
2022-09-12T17:35:21.499Z,100.00
2022-09-12T17:37:55.039Z,100.00
2022-09-12T17:40:55.744Z,100.00
2022-09-12T17:43:04.241Z,100.00
2022-09-12T17:45:37.577Z,100.00
2022-09-12T17:48:12.992Z,100.00
2022-09-12T17:50:46.924Z,100.00
2022-09-12T17:53:20.468Z,100.00
2022-09-12T17:55:54.432Z,100.00
2022-09-12T17:58:29.810Z,100.00
2022-09-12T18:01:26.385Z,100.00
2022-09-12T18:04:01.924Z,100.00
2022-09-12T18:06:37.164Z,100.00
2022-09-12T18:09:11.873Z,100.00
2022-09-12T18:11:44.942Z,100.00
2022-09-12T18:14:19.781Z,100.00
2022-09-12T18:16:52.441Z,100.00
2022-09-12T18:19:26.905Z,100.00
2022-09-12T18:21:59.794Z,100.00
2022-09-12T18:24:34.333Z,100.00
2022-09-12T18:27:28.111Z,100.00
2022-09-12T18:30:20.607Z,100.00
2022-09-12T18:32:39.475Z,100.00
2022-09-12T18:35:13.158Z,100.00
2022-09-12T18:37:46.649Z,100.00
2022-09-12T18:40:21.395Z,100.00
2022-09-12T18:42:55.599Z,100.00
2022-09-12T18:45:29.270Z,100.00
2022-09-12T18:48:05.465Z,100.00
2022-09-12T18:50:39.170Z,100.00
2022-09-12T18:53:12.627Z,100.00
2022-09-12T18:55:45.629Z,100.00
2022-09-12T18:58:18.740Z,100.00
2022-09-12T19:00:52.400Z,100.00
2022-09-12T19:03:25.491Z,100.00
2022-09-12T19:05:59.284Z,100.00
2022-09-12T19:08:33.486Z,100.00
2022-09-12T19:11:06.550Z,100.00
2022-09-12T19:13:41.744Z,100.00
2022-09-12T19:16:20.585Z,100.00
2022-09-12T19:18:54.155Z,100.00
2022-09-12T19:21:48.910Z,100.00
2022-09-12T19:24:22.708Z,100.00
2022-09-12T19:26:56.299Z,100.00
2022-09-12T19:29:29.347Z,100.00
2022-09-12T19:32:02.519Z,100.00
2022-09-12T19:34:35.352Z,100.00
2022-09-12T19:37:09.163Z,100.00
2022-09-12T19:39:44.496Z,100.00
2022-09-12T19:42:17.762Z,100.00
2022-09-12T19:44:52.331Z,100.00
2022-09-12T19:47:28.862Z,100.00
2022-09-12T19:50:01.688Z,100.00
2022-09-12T19:52:34.859Z,100.00
2022-09-12T19:55:09.185Z,100.00
2022-09-12T19:57:42.182Z,100.00
2022-09-12T20:00:16.154Z,100.00
2022-09-12T20:02:53.974Z,100.00
2022-09-12T20:05:27.324Z,100.00
2022-09-12T20:08:00.634Z,100.00
2022-09-12T20:10:34.550Z,100.00
2022-09-12T20:13:09.244Z,100.00
2022-09-12T20:15:42.324Z,100.00
2022-09-12T20:18:15.812Z,100.00
2022-09-12T20:20:48.999Z,100.00
2022-09-12T20:23:24.085Z,100.00
2022-09-12T20:26:00.946Z,100.00
2022-09-12T20:28:35.080Z,100.00
2022-09-12T20:31:15.706Z,100.00
2022-09-12T20:33:52.148Z,100.00
2022-09-12T20:36:24.932Z,100.00
2022-09-12T20:39:02.641Z,100.00
2022-09-12T20:41:37.739Z,100.00
2022-09-12T20:44:11.379Z,100.00
2022-09-12T20:46:44.842Z,100.00
2022-09-12T20:49:17.752Z,100.00
2022-09-12T20:51:52.709Z,100.00
2022-09-12T20:54:26.140Z,100.00
2022-09-12T20:56:59.147Z,100.00
2022-09-12T20:59:35.309Z,100.00
2022-09-12T21:02:08.712Z,100.00
2022-09-12T21:04:41.924Z,100.00
2022-09-12T21:07:15.863Z,100.00
2022-09-12T21:09:49.520Z,100.00
2022-09-12T21:12:23.171Z,100.00
2022-09-12T21:14:57.555Z,100.00
2022-09-12T21:17:30.476Z,100.00
2022-09-12T21:20:07.982Z,100.00
2022-09-12T21:22:39.423Z,100.00
2022-09-12T21:25:14.254Z,100.00
2022-09-12T21:27:48.272Z,100.00
2022-09-12T21:30:21.231Z,100.00
2022-09-12T21:32:54.544Z,100.00
2022-09-12T21:35:28.538Z,100.00
2022-09-12T21:38:01.833Z,100.00
2022-09-12T21:40:34.999Z,100.00
2022-09-12T21:43:12.347Z,100.00
2022-09-12T21:45:43.347Z,100.00
2022-09-12T21:48:17.335Z,100.00
2022-09-12T21:50:53.940Z,100.00
2022-09-12T21:53:28.046Z,100.00
2022-09-12T21:56:08.953Z,100.00
2022-09-12T21:58:42.283Z,100.00
2022-09-12T22:01:16.326Z,100.00
2022-09-12T22:03:50.367Z,100.00
2022-09-12T22:06:25.092Z,100.00
2022-09-12T22:08:58.821Z,100.00
2022-09-12T22:11:32.063Z,100.00
2022-09-12T22:14:07.521Z,100.00
2022-09-12T22:16:41.868Z,100.00
2022-09-12T22:19:15.440Z,100.00
2022-09-12T22:22:06.952Z,100.00
2022-09-12T22:24:40.836Z,100.00
2022-09-12T22:27:14.762Z,100.00
2022-09-12T22:29:51.007Z,100.00
2022-09-12T22:32:24.198Z,100.00
2022-09-12T22:34:59.759Z,100.00
2022-09-12T22:37:32.734Z,100.00
2022-09-12T22:40:07.617Z,100.00
2022-09-12T22:42:44.443Z,100.00
2022-09-12T22:45:17.630Z,100.00
2022-09-12T22:47:51.667Z,100.00
2022-09-12T22:50:25.841Z,100.00
2022-09-12T22:52:58.937Z,100.00
2022-09-12T22:55:32.010Z,100.00
2022-09-12T22:58:05.247Z,100.00
2022-09-12T23:00:39.559Z,100.00
2022-09-12T23:03:11.945Z,100.00
2022-09-12T23:05:47.527Z,100.00
2022-09-12T23:08:20.971Z,100.00
2022-09-12T23:10:55.909Z,100.00
2022-09-12T23:13:29.204Z,100.00
2022-09-12T23:16:04.932Z,100.00
2022-09-12T23:18:38.181Z,100.00
2022-09-12T23:21:12.845Z,100.00
2022-09-12T23:23:45.834Z,100.00
2022-09-12T23:26:22.028Z,100.00
2022-09-12T23:28:58.706Z,100.00
2022-09-12T23:31:34.160Z,100.00
2022-09-12T23:34:07.409Z,100.00
2022-09-12T23:36:40.595Z,100.00
2022-09-12T23:39:17.094Z,100.00
2022-09-12T23:42:11.650Z,100.00
2022-09-12T23:44:45.330Z,100.00
2022-09-12T23:47:19.788Z,100.00
2022-09-12T23:49:52.782Z,100.00
2022-09-12T23:52:26.074Z,100.00
2022-09-12T23:54:59.556Z,100.00
2022-09-12T23:57:33.248Z,100.00
